Aviation Digital Data Service (ADDS)

Output produced by METARs form (2037 UTC 21 July 2017)
found at http://www.aviationweather.gov/adds/metars/
 
KABQ 211734Z 2118/2218 21005KT P6SM FEW060 SCT130 
     FM212100 18010G18KT P6SM VCSH SCT070 
     TEMPO 2121/2124 VRB22G35KT 
     FM220200 15008KT P6SM VCSH SCT100 
     FM220500 VRB04KT P6SM SCT130
       
KABY 211737Z 2118/2218 14004KT P6SM VCTS BKN040CB 
     FM212300 21005KT P6SM BKN050 
     FM220300 20004KT P6SM SCT200 
     FM221400 23005KT P6SM SCT040
       
KACT 211720Z 2118/2218 17010KT P6SM FEW080
       
KACV 211908Z 2119/2218 32008KT 1/2SM FG OVC002 
     TEMPO 2119/2120 2SM BR OVC004 
     FM212000 32007KT 3SM BR OVC004 
     TEMPO 2120/2121 SCT004 SCT020 
     FM212100 33010KT P6SM FEW025 
     FM220300 VRB04KT P6SM OVC010
       
TAF KADW 211700Z 2117/2223 18006KT 9999 SCT040 QNH2992INS 
     BECMG 2123/2124 20006KT 9999 BKN040 BKN200 QNH2996INS 
     BECMG 2216/2217 21012KT 9000 -SHRA BKN045 OVC200 QNH2996INS 
     TEMPO 2218/2222 28015G25KT 8000 -TSRA BKN045CB OVC060 TX36/2118Z TN25/2208Z
       
KAEG 211734Z 2118/2218 22005KT P6SM FEW060 SCT130 
     FM212100 18010G18KT P6SM VCSH SCT070 
     TEMPO 2121/2124 VRB22G35KT 
     FM220300 21013KT P6SM VCSH SCT100 
     FM220500 33004KT P6SM SCT130
       
KAEX 211721Z 2118/2218 VRB03KT P6SM FEW040 
     FM212200 16007KT P6SM VCTS BKN035CB 
     FM220400 VRB03KT P6SM SCT250
       
TAF KAFF 211906Z 2119/2301 13009KT 9999 FEW060 SCT080 SCT120 QNH3019INS 
     BECMG 2119/2120 14012G18KT 9999 VCTS SCT060CB SCT080 SCT120 QNH3018INS 
     TEMPO 2121/2123 VRB25G40KT 9000 -TSRA BKN060CB OVC110 
     BECMG 2122/2123 34015G25KT 8000 -SHRA VCTS BKN050CB BKN110 QNH3014INS 
     TEMPO 2123/2202 33012KT 4800 -TSRAGS SCT030 BKN050CB 
     BECMG 2201/2202 33020G25KT 9000 -SHRA VCTS FEW009 SCT030CB BKN110 QNH3026INS 
     BECMG 2205/2206 34010G15KT 9999 NSW FEW009 SCT050 BKN100 QNH3027INS 
     BECMG 2217/2218 VRB06KT 9000 -SHRA BKN045 QNH3025INS 
     BECMG 2220/2221 VRB20G30KT 9000 -TSRA BKN045CB QNH3024INS TX32/2120Z TN16/2211Z
       
KAFW 211720Z 2118/2218 18008KT P6SM FEW050 SCT090
       
KAGC 211725Z 2118/2218 00000KT P6SM SCT025 BKN045 
     FM212100 28004KT P6SM BKN110 
     FM220800 00000KT 3SM BR SCT150 
     FM221000 00000KT 1SM BR SCT110 
     FM221400 19004KT P6SM VCTS BKN045CB 
     FM221700 21007KT P6SM -SHRA VCTS OVC030CB
       
KAGS 211721Z 2118/2218 18006KT P6SM SCT050 
     FM220100 VRB03KT P6SM SCT100 
     FM221500 23006KT P6SM SCT035
       
KAHN 211725Z 2118/2218 19004KT P6SM SCT050 
     FM211900 20006KT P6SM VCSH SCT050 
     FM220100 00000KT P6SM FEW250 
     FM221400 25004KT P6SM FEW030 SCT250 
     FM221600 24006KT P6SM SCT040
       
KAIA 211722Z 2118/2218 33011G18KT P6SM SCT100 
     FM220200 35008KT P6SM SCT200
       
KALB 211726Z 2118/2218 28010KT P6SM FEW040 FEW050 FEW250 
     FM220000 27006KT P6SM FEW250 
     FM220600 VRB03KT P6SM BKN250 
     FM221100 VRB03KT P6SM SCT035 BKN180 OVC250 
     FM221600 34004KT P6SM BKN040 BKN120 OVC150
       
KALS 211740Z 2118/2218 VRB06KT P6SM FEW060 
     FM212200 17008KT P6SM VCTS SCT060CB 
     TEMPO 2122/2124 VRB15G25KT BKN060CB 
     FM220000 03008KT P6SM VCTS SCT060CB BKN250 
     FM220500 VRB06KT P6SM VCSH SCT080 BKN250 
     FM221100 VRB06KT P6SM SCT100 BKN250
       
KALW 211720Z 2118/2218 22008KT P6SM SKC 
     FM212200 22010KT P6SM FEW200 
     FM220400 20008KT P6SM SCT200
       
KAMA 211720Z 2118/2218 19017G25KT P6SM SCT080 
     FM220200 19010KT P6SM FEW250 
     FM221300 22012KT P6SM FEW250
       
KANB 211734Z 2118/2218 05006KT P6SM SCT040 
     FM220100 19002KT P6SM SCT035 SCT250 
     TEMPO 2210/2213 4SM BR 
     FM221500 23003KT P6SM SCT040
       
KAND 211730Z 2118/2218 VRB03KT P6SM FEW060 
     FM212000 19004KT P6SM SCT060 BKN250 
     FM220100 VRB03KT P6SM SCT250 
     FM221500 24007KT P6SM FEW060
       
KAOO 211757Z 2118/2218 31007KT P6SM FEW035 SCT045 SCT060 
     FM220400 00000KT 4SM BR SCT250 
     FM220800 00000KT 1 1/2SM BR SCT250 
     FM221000 00000KT 1/2SM FG BKN001 
     FM221100 00000KT 1/4SM FG BKN001 
     FM221300 00000KT 2SM BR OVC250 
     FM221400 00000KT 6SM HZ BKN250
       
KAPA 211725Z 2118/2218 05006KT P6SM FEW120 SCT220 
     FM212200 31013G22KT P6SM VCTS SCT080CB BKN120 
     TEMPO 2122/2202 VRB20G35KT -TSRA BKN080CB 
     FM220300 25011KT P6SM VCSH FEW080 BKN120 BKN200 
     FM220600 19006KT P6SM FEW060 SCT090 BKN120 
     FM221500 33006KT P6SM FEW120 SCT200
       
KAPF 211746Z 2118/2218 24008KT P6SM VCSH SCT035 SCT120 
     FM220000 VRB03KT P6SM SCT030 
     FM221400 20008KT P6SM VCSH SCT030
       
KAPN 211720Z 2118/2218 VRB03KT P6SM SCT250 
     FM220100 00000KT P6SM SCT120 BKN200 
     FM221400 11005KT P6SM VCSH SCT050 BKN100
       
KARA 211721Z 2118/2218 15007KT P6SM BKN040 
     FM212000 16006KT P6SM VCTS BKN035CB 
     TEMPO 2123/2203 3SM TSRA BKN025CB 
     FM220500 VRB03KT P6SM BKN250
       
KASD 211838Z 2119/2218 VRB04KT P6SM VCTS FEW050CB 
     TEMPO 2119/2121 VRB15G30KT 3SM TSRA OVC035CB 
     FM220200 VRB03KT P6SM BKN200 
     FM221500 VRB04KT P6SM VCSH FEW035
       
KASE 211740Z 2118/2218 36006KT P6SM VCSH SCT070 SCT100 
     FM211900 36006KT P6SM VCTS BKN070CB BKN100 
     FM212300 15008KT P6SM VCTS BKN060CB BKN090 
     FM220600 19005KT P6SM BKN070 BKN100 
     FM221400 34005KT P6SM SCT100 SCT150
       
KASN 211734Z 2118/2218 05006KT P6SM SCT040 
     FM220100 00000KT P6SM SCT035 SCT250 
     TEMPO 2210/2213 5SM BR 
     FM221500 23003KT P6SM SCT040
       
KAST 211725Z 2118/2218 VRB04KT P6SM FEW050 
     TEMPO 2118/2119 BKN015 
     FM212300 24010KT P6SM BKN060 
     FM220500 VRB04KT P6SM BKN009 
     FM221200 VRB03KT P6SM OVC005 
     FM221700 28005KT P6SM OVC020
       
KATW 211733Z 2118/2218 18005KT P6SM SCT120 BKN200 
     FM212200 16007KT P6SM BKN120 
     FM220000 15006KT P6SM VCSH OVC090 
     FM220500 14006KT 5SM -SHRA BR VCTS OVC030CB 
     FM221100 10006KT 3SM BR OVC008 
     FM221500 04006KT P6SM BKN010
       
KATL 211931Z 2120/2224 23005KT P6SM SCT050 
     FM212200 21008KT P6SM VCSH SCT050 
     FM220100 21003KT P6SM FEW250 
     FM221400 25005KT P6SM FEW030 SCT250 
     FM221600 23008KT P6SM SCT040 
     FM221900 23009KT P6SM VCSH SCT050
       
KATY 211734Z 2118/2218 VRB04KT P6SM SKC 
     FM220000 23006KT P6SM VCTS SCT040CB BKN200CB 
     FM220200 30005KT P6SM VCTS BKN020CB OVC070 
     FM220600 32005KT P6SM SCT250 
     FM221500 30009KT P6SM FEW140 
     FM221700 31014KT P6SM FEW250
       
KAUG 211720Z 2118/2218 29008KT P6SM FEW050 
     TEMPO 2209/2211 6SM BR
       
KAUS 211720Z 2118/2224 19008KT P6SM SCT250 
     FM221100 18004KT P6SM SCT015 SCT250
       
KAUW 211733Z 2118/2218 18009KT P6SM SCT120 BKN200 
     FM212200 16007KT P6SM VCSH BKN090 
     FM220000 15006KT P6SM VCSH OVC070 
     FM220300 14006KT 5SM -SHRA BR VCTS OVC030CB 
     FM220900 10006KT 3SM BR OVC007 
     FM221500 11006KT P6SM BKN015
       
KAVL 211730Z 2118/2218 16005KT P6SM SCT045 
     FM212000 19005KT P6SM VCTS SCT050CB BKN250 
     FM220000 21003KT P6SM SCT045 BKN250 
     FM220400 00000KT P6SM SCT250 
     FM221500 20005KT P6SM SCT045 
     PROB30 2216/2218 4SM -TSRA BKN045CB
       
KAVP 211732Z 2118/2218 32007G14KT P6SM SCT040 
     FM220000 VRB03KT P6SM BKN050 
     FM220500 00000KT 3SM BR SCT005 
     TEMPO 2208/2212 1SM BR BKN004 
     FM221300 00000KT P6SM FEW250 
     FM221600 21005KT P6SM SCT040
       
KAXN 211736Z 2118/2218 15012KT P6SM FEW020 SCT090 BKN250 
     FM220300 11007KT P6SM -SHRA VCTS SCT050 BKN090CB 
     FM220600 09007KT P6SM BKN025 BKN035 
     FM221200 31007KT P6SM SCT070
       
KAZO 211740Z 2118/2218 13004KT P6SM BKN250 
     FM220000 15003KT P6SM -SHRA OVC070 
     FM220700 14005KT 5SM -TSRA BR OVC025CB 
     FM221100 13006KT P6SM VCTS OVC015CB 
     FM221200 08005KT 6SM HZ OVC015